Time;durP1;ratioP1;P1;durP2;ratioP2;P2;SDS_P1;SDS_P2;PMS_P1;PMS_P2;Temp;Humidity;BMP_temperature;BMP_pressure;BME280_temperature;BME280_humidity;BME280_pressure;Samples;Min_cycle;Max_cycle;Signal;HPM_P1;HPM_P2
2023/03/29 00:00:26;;;;;;;128.18;70.03;;;0.10;99.90;;;;;;4962612;28;20046;-74
2023/03/29 00:02:55;;;;;;;128.38;73.95;;;0.10;99.90;;;;;;4962806;28;20046;-75
2023/03/29 00:05:24;;;;;;;108.18;64.05;;;0.00;99.90;;;;;;4964375;28;20446;-76
2023/03/29 00:08:00;;;;;;;109.22;64.65;;;0.00;99.90;;;;;;4965416;28;20049;-75
2023/03/29 00:10:28;;;;;;;118.15;70.05;;;-0.10;99.90;;;;;;4967393;28;20051;-75
2023/03/29 00:12:55;;;;;;;115.03;69.00;;;-0.20;99.90;;;;;;4986848;28;20051;-74
2023/03/29 00:15:23;;;;;;;116.72;65.82;;;-0.20;99.90;;;;;;4961978;28;20127;-76
2023/03/29 00:17:50;;;;;;;106.88;63.22;;;-0.20;99.90;;;;;;4986229;28;20400;-75
2023/03/29 00:20:18;;;;;;;118.43;71.47;;;-0.10;99.90;;;;;;4960988;28;20043;-76
2023/03/29 00:22:46;;;;;;;122.03;70.28;;;-0.10;99.90;;;;;;4964645;28;20046;-75
2023/03/29 00:25:15;;;;;;;115.75;68.10;;;-0.20;99.90;;;;;;4960267;28;20059;-75
2023/03/29 00:27:43;;;;;;;113.38;68.03;;;-0.20;99.90;;;;;;4961667;28;20039;-76
2023/03/29 00:30:11;;;;;;;109.53;63.47;;;-0.20;99.90;;;;;;4960650;28;20058;-75
2023/03/29 00:32:39;;;;;;;141.10;83.40;;;-0.30;99.90;;;;;;4962486;28;20058;-74
2023/03/29 00:35:07;;;;;;;119.75;72.93;;;-0.30;99.90;;;;;;4962157;28;20055;-74
2023/03/29 00:37:35;;;;;;;129.30;74.68;;;-0.40;99.90;;;;;;4960893;28;20053;-76
2023/03/29 00:40:06;;;;;;;132.02;79.15;;;-0.30;99.90;;;;;;4962633;28;20442;-76
2023/03/29 00:42:35;;;;;;;132.27;75.47;;;-0.40;99.90;;;;;;4959176;28;20062;-75
2023/03/29 00:45:06;;;;;;;120.90;69.13;;;-0.40;99.90;;;;;;4961575;28;20569;-75
2023/03/29 00:47:40;;;;;;;109.57;63.72;;;-0.50;99.90;;;;;;4962347;28;20454;-76
2023/03/29 00:50:13;;;;;;;109.00;60.97;;;-0.50;99.90;;;;;;4964292;28;20142;-75
2023/03/29 00:52:42;;;;;;;107.43;62.45;;;-0.60;99.90;;;;;;4963538;28;20434;-76
2023/03/29 00:55:14;;;;;;;102.53;60.72;;;-0.60;99.90;;;;;;4983341;28;20582;-76
2023/03/29 00:57:45;;;;;;;100.50;58.00;;;-0.60;99.90;;;;;;4962989;28;20051;-76
2023/03/29 01:00:16;;;;;;;86.70;52.85;;;-0.60;99.90;;;;;;4962013;28;20420;-78
2023/03/29 01:02:49;;;;;;;79.82;46.33;;;-0.60;99.90;;;;;;4983056;28;20474;-76
2023/03/29 01:05:22;;;;;;;78.72;45.35;;;-0.50;99.90;;;;;;4966650;28;20563;-76
2023/03/29 01:07:56;;;;;;;78.97;44.30;;;-0.60;99.90;;;;;;4962487;28;20098;-76
2023/03/29 01:10:31;;;;;;;83.70;49.50;;;-0.60;99.90;;;;;;4960330;28;20055;-76
2023/03/29 01:13:04;;;;;;;85.35;49.53;;;-0.60;99.90;;;;;;4963219;28;20040;-76
2023/03/29 01:15:33;;;;;;;83.55;46.85;;;-0.50;99.90;;;;;;4983388;28;20043;-76
2023/03/29 01:18:00;;;;;;;89.45;51.20;;;-0.50;99.90;;;;;;4960754;28;20039;-76
2023/03/29 01:20:42;;;;;;;76.13;43.67;;;-0.50;99.90;;;;;;4959659;28;20043;-75
2023/03/29 01:23:39;;;;;;;79.10;44.55;;;-0.40;99.90;;;;;;4958819;28;20059;-74
2023/03/29 01:26:14;;;;;;;73.55;45.05;;;-0.40;99.90;;;;;;4978721;28;20051;-76
2023/03/29 01:28:50;;;;;;;81.78;47.28;;;-0.40;99.90;;;;;;4959616;28;20134;-76
2023/03/29 01:31:23;;;;;;;73.50;43.50;;;-0.30;99.90;;;;;;4961032;28;20035;-76
2023/03/29 01:33:58;;;;;;;68.53;41.13;;;-0.20;99.90;;;;;;4960722;28;20149;-76
2023/03/29 01:36:29;;;;;;;64.07;37.22;;;-0.20;99.90;;;;;;4959800;28;20162;-75
2023/03/29 01:38:59;;;;;;;62.85;36.95;;;-0.20;99.90;;;;;;4959867;28;20054;-75
2023/03/29 01:41:38;;;;;;;65.20;38.45;;;-0.20;99.90;;;;;;4960353;28;20414;-76
2023/03/29 01:44:10;;;;;;;65.03;37.45;;;-0.20;99.90;;;;;;4958562;28;20495;-76
2023/03/29 01:46:45;;;;;;;65.10;36.03;;;-0.10;99.90;;;;;;4961843;28;20047;-75
2023/03/29 01:49:22;;;;;;;67.22;37.08;;;-0.10;99.90;;;;;;4984025;28;20046;-76
2023/03/29 01:51:55;;;;;;;70.65;41.42;;;-0.10;99.90;;;;;;4961477;28;20495;-75
2023/03/29 01:54:27;;;;;;;68.53;39.53;;;-0.10;99.90;;;;;;4983780;28;20050;-75
2023/03/29 01:56:58;;;;;;;69.15;40.45;;;-0.10;99.90;;;;;;4982752;28;20047;-76
2023/03/29 01:59:31;;;;;;;74.07;43.03;;;0.00;99.90;;;;;;4960532;28;20379;-74
2023/03/29 02:02:00;;;;;;;72.13;42.00;;;-0.10;99.90;;;;;;4958302;28;20410;-75
2023/03/29 02:04:31;;;;;;;72.00;39.08;;;-0.10;99.90;;;;;;4968475;28;20097;-76
2023/03/29 02:07:01;;;;;;;64.60;36.67;;;-0.10;99.90;;;;;;4969616;28;20338;-76
2023/03/29 02:09:30;;;;;;;57.67;33.95;;;0.00;99.90;;;;;;4983231;28;20141;-76
2023/03/29 02:12:03;;;;;;;59.25;34.05;;;0.00;99.90;;;;;;4982744;28;20174;-76
2023/03/29 02:14:35;;;;;;;59.15;34.10;;;0.00;99.90;;;;;;4960395;28;20069;-76
2023/03/29 02:17:18;;;;;;;54.50;31.63;;;0.00;99.90;;;;;;4958224;28;20051;-76
2023/03/29 02:19:50;;;;;;;55.15;32.83;;;-0.10;99.90;;;;;;4956613;28;20047;-75
2023/03/29 02:22:24;;;;;;;64.25;33.88;;;-0.20;99.90;;;;;;4981576;28;20043;-75
2023/03/29 02:24:55;;;;;;;57.70;34.90;;;-0.30;99.90;;;;;;4958408;28;20384;-75
2023/03/29 02:27:22;;;;;;;65.18;35.15;;;-0.30;99.90;;;;;;4958766;28;20043;-76
2023/03/29 02:29:51;;;;;;;62.95;37.97;;;-0.30;99.90;;;;;;4982723;28;20139;-77
2023/03/29 02:32:26;;;;;;;71.93;40.60;;;-0.40;99.90;;;;;;4972583;28;20039;-76
2023/03/29 02:34:58;;;;;;;71.93;41.55;;;-0.40;99.90;;;;;;4972459;28;20137;-74
2023/03/29 02:37:29;;;;;;;76.35;43.25;;;-0.50;99.90;;;;;;4959193;28;20094;-75
2023/03/29 02:39:58;;;;;;;76.85;42.83;;;-0.50;99.90;;;;;;4984449;28;20043;-75
2023/03/29 02:42:26;;;;;;;76.30;42.83;;;-0.60;99.90;;;;;;4959614;28;20039;-75
2023/03/29 02:44:59;;;;;;;73.60;42.25;;;-0.70;99.90;;;;;;4961687;28;20039;-76
2023/03/29 02:47:31;;;;;;;76.00;43.72;;;-0.60;99.90;;;;;;4961385;28;20049;-75
2023/03/29 02:49:59;;;;;;;72.93;43.05;;;-0.60;99.90;;;;;;4958562;28;20049;-74
2023/03/29 02:52:34;;;;;;;68.30;39.80;;;-0.70;99.90;;;;;;4960254;28;20431;-75
2023/03/29 02:55:03;;;;;;;74.40;42.58;;;-0.70;99.90;;;;;;4959342;28;20050;-75
2023/03/29 02:57:34;;;;;;;70.30;42.20;;;-0.80;99.90;;;;;;4956958;28;20050;-76
2023/03/29 03:00:05;;;;;;;79.35;43.05;;;-0.80;99.90;;;;;;4958771;28;20055;-76
2023/03/29 03:02:34;;;;;;;83.38;43.92;;;-0.80;99.90;;;;;;4982560;28;20415;-76
2023/03/29 03:05:02;;;;;;;77.60;45.75;;;-0.90;99.90;;;;;;4980539;28;20039;-76
2023/03/29 03:07:30;;;;;;;81.20;45.40;;;-0.90;99.90;;;;;;4976283;28;20040;-76
2023/03/29 03:09:57;;;;;;;80.80;46.28;;;-1.00;99.90;;;;;;4960749;28;20047;-76
2023/03/29 03:12:25;;;;;;;76.82;45.25;;;-1.00;99.90;;;;;;4961592;28;20047;-75
2023/03/29 03:14:54;;;;;;;74.20;45.10;;;-1.10;99.90;;;;;;4969698;28;20078;-75
2023/03/29 03:17:24;;;;;;;73.68;41.90;;;-1.10;99.90;;;;;;4980625;28;20098;-77
2023/03/29 03:19:52;;;;;;;77.53;42.85;;;-1.10;99.90;;;;;;4985131;28;20039;-76
2023/03/29 03:22:20;;;;;;;81.20;43.85;;;-1.20;99.90;;;;;;4962282;28;20097;-76
2023/03/29 03:24:50;;;;;;;78.15;44.83;;;-1.20;99.90;;;;;;4965123;28;20066;-76
2023/03/29 03:27:18;;;;;;;87.75;48.97;;;-1.10;99.90;;;;;;4987325;28;20039;-75
2023/03/29 03:29:46;;;;;;;82.50;49.20;;;-1.10;99.90;;;;;;4963478;28;20035;-77
2023/03/29 03:32:43;;;;;;;83.60;47.03;;;-1.10;99.90;;;;;;4961313;28;20059;-76
2023/03/29 03:35:39;;;;;;;73.20;42.22;;;-1.10;99.90;;;;;;4964515;28;20066;-76
2023/03/29 03:38:07;;;;;;;77.57;45.42;;;-1.10;99.90;;;;;;4963621;28;20051;-75
2023/03/29 03:40:35;;;;;;;83.68;47.78;;;-1.20;99.90;;;;;;4962900;28;20044;-75
2023/03/29 03:43:03;;;;;;;85.95;48.00;;;-1.20;99.90;;;;;;4966456;28;20500;-75
2023/03/29 03:45:30;;;;;;;73.32;46.50;;;-1.20;99.90;;;;;;4967926;28;20586;-76
2023/03/29 03:48:18;;;;;;;82.38;47.28;;;-1.10;99.90;;;;;;4962606;28;20117;-75
2023/03/29 03:50:49;;;;;;;80.53;47.95;;;-1.10;99.90;;;;;;4986096;28;20061;-76
2023/03/29 03:53:17;;;;;;;76.15;44.85;;;-1.10;99.90;;;;;;4962174;28;20057;-75
2023/03/29 03:56:08;;;;;;;72.63;41.63;;;-1.10;99.90;;;;;;4943926;28;20131;-76
2023/03/29 03:58:46;;;;;;;75.55;45.80;;;-1.20;99.90;;;;;;4962086;28;20131;-76
2023/03/29 04:01:15;;;;;;;72.22;40.90;;;-1.30;99.90;;;;;;4961251;28;20062;-75
2023/03/29 04:03:54;;;;;;;71.70;41.50;;;-1.30;99.90;;;;;;4985654;28;20054;-76
2023/03/29 04:06:24;;;;;;;52.17;31.90;;;-1.30;99.90;;;;;;4960816;28;20046;-76
2023/03/29 04:09:24;;;;;;;52.10;31.10;;;-1.30;99.90;;;;;;4967364;28;20043;-75
2023/03/29 04:12:11;;;;;;;62.13;35.90;;;-1.40;99.90;;;;;;4985227;28;20043;-76
2023/03/29 04:14:40;;;;;;;76.95;44.35;;;-1.40;99.90;;;;;;4965426;28;20042;-75
2023/03/29 04:17:14;;;;;;;71.63;42.05;;;-1.40;99.90;;;;;;4961470;28;20043;-76
2023/03/29 04:20:11;;;;;;;89.35;51.47;;;-1.50;99.90;;;;;;4961953;28;20410;-75
2023/03/29 04:22:40;;;;;;;;;;;-1.50;99.90;;;;;;4977730;28;20047;-75
2023/03/29 04:25:09;;;;;;;75.85;43.88;;;-1.50;99.90;;;;;;4960490;28;19953;-76
2023/03/29 04:27:39;;;;;;;75.85;44.55;;;-1.50;99.90;;;;;;4961997;28;20055;-74
2023/03/29 04:30:15;;;;;;;74.40;44.55;;;-1.60;99.90;;;;;;4960459;28;20440;-75
2023/03/29 04:33:15;;;;;;;70.88;43.53;;;-1.60;99.90;;;;;;4969499;28;20039;-74
2023/03/29 04:35:49;;;;;;;74.63;44.50;;;-1.50;99.90;;;;;;4960569;28;20054;-75
2023/03/29 04:38:21;;;;;;;102.30;51.65;;;-1.50;99.90;;;;;;4976892;28;20576;-76
2023/03/29 04:40:51;;;;;;;74.32;42.80;;;-1.40;99.90;;;;;;4960022;28;20050;-75
2023/03/29 04:43:28;;;;;;;67.00;40.45;;;-1.50;99.90;;;;;;4962395;28;20066;-75
2023/03/29 04:46:06;;;;;;;70.95;40.08;;;-1.40;99.90;;;;;;4969059;28;20053;-75
2023/03/29 04:48:56;;;;;;;96.43;53.05;;;-1.40;99.90;;;;;;4965915;28;20407;-76
2023/03/29 04:51:35;;;;;;;99.32;54.58;;;-1.40;99.90;;;;;;4960938;28;20070;-75
2023/03/29 04:54:03;;;;;;;86.90;47.53;;;-1.40;99.90;;;;;;4964749;28;20053;-75
2023/03/29 04:56:35;;;;;;;93.20;51.72;;;-1.30;99.90;;;;;;4960542;28;20222;-75
2023/03/29 04:59:21;;;;;;;95.95;52.72;;;-1.10;99.90;;;;;;4960698;28;20085;-75
2023/03/29 05:01:49;;;;;;;101.45;55.20;;;-1.10;99.90;;;;;;4960931;28;20042;-75
2023/03/29 05:04:17;;;;;;;89.85;51.72;;;-1.00;99.90;;;;;;4983710;28;20118;-76
2023/03/29 05:07:01;;;;;;;90.85;51.10;;;-0.90;99.90;;;;;;4960613;28;20146;-74
2023/03/29 05:09:29;;;;;;;90.55;52.08;;;-0.90;99.90;;;;;;4982531;28;20051;-75
2023/03/29 05:11:57;;;;;;;77.05;47.97;;;-0.80;99.90;;;;;;4984301;28;20129;-75
2023/03/29 05:14:25;;;;;;;77.18;44.45;;;-0.70;99.90;;;;;;4962192;28;20110;-74
2023/03/29 05:16:53;;;;;;;72.38;40.05;;;-0.60;99.90;;;;;;4988496;28;20043;-75
2023/03/29 05:19:21;;;;;;;74.22;45.22;;;-0.50;99.90;;;;;;4964174;28;20230;-76
2023/03/29 05:21:50;;;;;;;68.00;38.38;;;-0.40;99.90;;;;;;4961661;28;20042;-75
2023/03/29 05:24:22;;;;;;;78.35;47.38;;;-0.20;99.90;;;;;;4961520;28;20046;-75
2023/03/29 05:26:58;;;;;;;86.57;48.35;;;0.00;99.90;;;;;;4961231;28;20546;-75
2023/03/29 05:29:28;;;;;;;85.55;47.05;;;0.20;99.90;;;;;;4965147;28;20098;-74
2023/03/29 05:32:10;;;;;;;89.82;49.20;;;0.20;99.90;;;;;;4962000;28;20050;-75
2023/03/29 05:34:38;;;;;;;90.32;51.15;;;0.40;99.90;;;;;;4985296;28;20049;-76
2023/03/29 05:37:06;;;;;;;98.60;51.88;;;0.70;99.90;;;;;;4959693;28;20042;-75
2023/03/29 05:39:48;;;;;;;96.90;47.92;;;0.80;99.90;;;;;;4983684;28;20070;-75
2023/03/29 05:42:21;;;;;;;78.93;42.95;;;1.00;99.90;;;;;;4983834;28;20491;-76
2023/03/29 05:44:58;;;;;;;85.82;43.67;;;1.20;99.90;;;;;;4960819;28;20051;-77
2023/03/29 05:47:26;;;;;;;65.90;36.95;;;1.30;99.90;;;;;;4984653;28;20102;-76
2023/03/29 05:49:54;;;;;;;70.32;39.50;;;1.40;99.90;;;;;;4958682;28;20098;-75
2023/03/29 05:52:23;;;;;;;73.22;40.15;;;1.60;99.90;;;;;;4975407;28;20051;-76
2023/03/29 05:54:53;;;;;;;79.38;42.70;;;1.80;99.90;;;;;;4959429;28;20071;-76
2023/03/29 05:57:22;;;;;;;94.32;51.60;;;2.00;99.90;;;;;;4997317;28;20487;-75
2023/03/29 05:59:49;;;;;;;93.57;49.92;;;2.20;99.90;;;;;;4977656;28;20050;-75
2023/03/29 06:02:17;;;;;;;84.50;48.45;;;2.30;1.00;;;;;;4985678;28;20197;-75
2023/03/29 06:04:52;;;;;;;81.38;44.47;;;2.30;1.00;;;;;;4960164;28;20139;-76
2023/03/29 06:07:41;;;;;;;79.55;40.55;;;2.20;1.00;;;;;;4962125;28;20042;-76
2023/03/29 06:10:37;;;;;;;73.57;37.53;;;2.20;99.90;;;;;;4954940;28;20138;-75
2023/03/29 06:13:35;;;;;;;67.32;33.97;;;2.20;1.00;;;;;;4943473;28;20134;-77
2023/03/29 06:16:04;;;;;;;71.15;36.53;;;2.00;1.00;;;;;;4959613;28;20081;-75
2023/03/29 06:18:32;;;;;;;62.42;33.58;;;2.00;99.90;;;;;;4958783;28;20078;-76
2023/03/29 06:21:01;;;;;;;73.60;36.20;;;2.20;91.80;;;;;;4957525;28;20588;-76
2023/03/29 06:23:29;;;;;;;88.10;42.00;;;2.20;99.90;;;;;;4960091;28;20055;-74
2023/03/29 06:25:59;;;;;;;91.53;43.05;;;2.30;79.20;;;;;;4959353;28;20443;-76
2023/03/29 06:28:27;;;;;;;77.47;41.38;;;2.30;99.90;;;;;;4958358;28;20073;-75
2023/03/29 06:31:00;;;;;;;71.15;40.90;;;2.40;99.90;;;;;;4958480;28;20698;-75
2023/03/29 06:33:31;;;;;;;78.32;40.58;;;2.50;82.00;;;;;;4957413;28;20035;-75
2023/03/29 06:36:04;;;;;;;76.18;37.00;;;2.50;44.60;;;;;;4982840;28;20123;-75
2023/03/29 06:38:34;;;;;;;73.78;40.42;;;2.70;1.00;;;;;;4958048;28;20122;-75
2023/03/29 06:41:16;;;;;;;74.30;38.75;;;2.80;1.00;;;;;;4958101;28;20138;-74
2023/03/29 06:44:09;;;;;;;60.33;32.17;;;2.90;1.00;;;;;;4959060;28;20695;-76
2023/03/29 06:46:47;;;;;;;53.10;29.73;;;3.10;1.00;;;;;;4958990;28;20053;-75
2023/03/29 06:49:16;;;;;;;63.50;35.30;;;3.30;99.90;;;;;;4959567;28;20117;-74
2023/03/29 06:52:00;;;;;;;59.67;34.15;;;3.50;1.00;;;;;;4982536;28;20617;-74
2023/03/29 06:54:28;;;;;;;65.10;34.35;;;3.60;1.00;;;;;;4954114;28;20135;-75
2023/03/29 06:57:04;;;;;;;74.35;35.95;;;3.80;99.90;;;;;;4957777;28;20545;-75
2023/03/29 06:59:34;;;;;;;72.13;38.78;;;3.90;1.00;;;;;;4959140;28;20051;-76
2023/03/29 07:02:14;;;;;;;70.55;38.75;;;4.00;1.00;;;;;;4959815;28;20045;-75
2023/03/29 07:04:48;;;;;;;61.28;33.67;;;4.10;1.00;;;;;;4980707;28;20051;-75
2023/03/29 07:07:31;;;;;;;61.20;31.02;;;4.20;99.90;;;;;;4958081;28;20047;-75
2023/03/29 07:10:11;;;;;;;63.38;34.03;;;4.20;1.00;;;;;;4959333;28;20074;-74
2023/03/29 07:13:11;;;;;;;;;;;4.20;1.00;;;;;;4983468;28;20501;-75
2023/03/29 07:15:38;;;;;;;45.85;25.35;;;4.60;2.10;;;;;;4959134;28;19922;-75
2023/03/29 07:18:19;;;;;;;43.83;24.25;;;4.80;99.90;;;;;;4958712;28;20113;-76
2023/03/29 07:20:48;;;;;;;48.03;24.50;;;5.20;1.00;;;;;;4961104;28;20050;-74
2023/03/29 07:23:16;;;;;;;46.40;24.75;;;5.60;99.90;;;;;;4983485;28;20047;-76
2023/03/29 07:25:45;;;;;;;44.17;25.17;;;5.70;1.00;;;;;;4959282;28;20051;-74
2023/03/29 07:28:15;;;;;;;46.28;24.55;;;5.90;1.00;;;;;;4960739;28;20055;-76
2023/03/29 07:30:42;;;;;;;35.88;18.77;;;6.20;1.00;;;;;;4982162;28;20575;-75
2023/03/29 07:33:13;;;;;;;33.17;18.58;;;6.40;1.00;;;;;;4983519;28;20058;-74
2023/03/29 07:35:49;;;;;;;29.92;15.35;;;6.50;1.00;;;;;;4958777;28;20047;-76
2023/03/29 07:38:17;;;;;;;35.97;20.30;;;6.70;1.00;;;;;;4983745;28;20059;-75
2023/03/29 07:40:53;;;;;;;35.80;21.27;;;7.10;1.00;;;;;;4961402;28;20048;-74
2023/03/29 07:43:45;;;;;;;34.72;19.67;;;7.20;1.00;;;;;;4961516;28;20134;-74
2023/03/29 07:46:15;;;;;;;31.05;15.90;;;7.30;1.00;;;;;;4960896;28;20063;-75
2023/03/29 07:48:44;;;;;;;25.30;15.20;;;7.60;99.90;;;;;;4958908;28;20051;-75
2023/03/29 07:51:15;;;;;;;24.30;13.70;;;7.80;99.90;;;;;;4959836;28;20051;-75
2023/03/29 07:53:48;;;;;;;26.00;12.20;;;7.90;99.90;;;;;;4958590;28;20142;-75
2023/03/29 07:56:33;;;;;;;23.60;14.00;;;8.10;99.90;;;;;;4960695;28;20054;-75
2023/03/29 07:59:23;;;;;;;23.23;12.38;;;8.10;99.90;;;;;;4960464;28;20487;-74
2023/03/29 08:02:00;;;;;;;22.02;13.50;;;8.50;99.90;;;;;;4958887;28;20075;-74
2023/03/29 08:04:43;;;;;;;22.95;12.07;;;8.70;99.90;;;;;;4968215;28;20055;-73
2023/03/29 08:07:20;;;;;;;20.70;10.80;;;8.90;99.90;;;;;;4966053;28;20142;-73
2023/03/29 08:10:18;;;;;;;16.80;10.35;;;9.00;99.90;;;;;;4966055;28;20055;-74
2023/03/29 08:13:09;;;;;;;22.48;12.20;;;9.20;99.90;;;;;;4956834;28;20507;-73
2023/03/29 08:15:53;;;;;;;20.88;12.27;;;9.30;99.90;;;;;;4986818;28;20043;-74
2023/03/29 08:18:29;;;;;;;20.52;11.77;;;9.40;99.90;;;;;;4962511;28;20047;-74
2023/03/29 08:20:57;;;;;;;19.20;11.43;;;9.30;99.90;;;;;;4960948;28;20102;-73
2023/03/29 08:23:24;;;;;;;17.70;10.77;;;9.10;99.90;;;;;;4963088;28;20067;-74
2023/03/29 08:26:04;;;;;;;20.45;11.63;;;9.20;99.90;;;;;;4960299;28;20040;-73
2023/03/29 08:28:32;;;;;;;18.77;10.80;;;9.50;99.90;;;;;;4987301;28;20039;-73
2023/03/29 08:31:01;;;;;;;19.17;10.40;;;9.70;99.90;;;;;;4963764;28;20051;-74
2023/03/29 08:33:29;;;;;;;17.73;9.90;;;9.80;99.90;;;;;;4964306;28;20964;-73
2023/03/29 08:36:19;;;;;;;13.88;7.57;;;9.80;99.90;;;;;;4961237;28;20049;-75
2023/03/29 08:38:49;;;;;;;16.23;9.93;;;10.10;99.90;;;;;;4987319;28;20138;-76
2023/03/29 08:41:33;;;;;;;19.45;9.18;;;10.10;99.90;;;;;;4964660;28;20059;-75
2023/03/29 08:44:20;;;;;;;13.35;6.82;;;10.30;99.90;;;;;;4985515;28;20047;-75
2023/03/29 08:47:08;;;;;;;8.27;5.18;;;10.40;99.90;;;;;;4989494;28;20507;-75
2023/03/29 08:49:43;;;;;;;9.13;4.80;;;10.50;99.90;;;;;;4979947;28;20055;-74
2023/03/29 08:52:21;;;;;;;8.52;4.13;;;10.80;99.90;;;;;;4985437;28;20189;-74
2023/03/29 08:54:53;;;;;;;9.10;5.03;;;11.00;99.90;;;;;;4985461;28;20050;-76
2023/03/29 08:57:32;;;;;;;13.88;6.32;;;11.20;99.90;;;;;;4961802;28;20055;-74
2023/03/29 09:00:18;;;;;;;11.65;6.20;;;11.10;99.90;;;;;;4963036;28;20070;-75
2023/03/29 09:02:48;;;;;;;12.27;6.00;;;10.90;99.90;;;;;;4963532;28;20562;-75
2023/03/29 09:05:22;;;;;;;11.85;4.40;;;10.70;99.90;;;;;;4961688;28;20105;-75
2023/03/29 09:08:21;;;;;;;7.75;3.92;;;10.60;99.90;;;;;;4959645;28;20473;-75
2023/03/29 09:11:22;;;;;;;14.43;6.32;;;10.70;99.90;;;;;;4984849;28;20451;-74
2023/03/29 09:14:00;;;;;;;12.80;4.43;;;10.90;99.90;;;;;;4959774;28;20043;-73
2023/03/29 09:16:36;;;;;;;7.60;3.75;;;10.80;99.90;;;;;;4977081;28;20044;-73
2023/03/29 09:19:16;;;;;;;9.45;4.43;;;10.50;99.90;;;;;;4946865;28;20035;-74
2023/03/29 09:21:49;;;;;;;9.75;4.88;;;10.50;99.90;;;;;;4959622;28;20038;-74
2023/03/29 09:24:38;;;;;;;9.98;5.68;;;10.50;99.90;;;;;;4960482;28;20049;-74
2023/03/29 09:27:22;;;;;;;10.25;4.93;;;10.70;99.90;;;;;;4964372;28;20047;-74
2023/03/29 09:30:04;;;;;;;12.40;4.80;;;11.00;99.90;;;;;;4985047;28;20046;-75
2023/03/29 09:32:57;;;;;;;9.05;4.20;;;11.20;99.90;;;;;;4970322;28;20547;-74
2023/03/29 09:35:38;;;;;;;9.65;4.25;;;11.40;99.90;;;;;;4997607;28;20043;-72
2023/03/29 09:38:12;;;;;;;8.00;4.47;;;11.50;99.90;;;;;;4991687;28;20043;-73
2023/03/29 09:40:45;;;;;;;5.82;3.20;;;11.70;99.90;;;;;;4965393;28;20051;-73
2023/03/29 09:43:25;;;;;;;9.07;3.20;;;11.30;99.90;;;;;;4962814;28;20038;-72
2023/03/29 09:45:58;;;;;;;9.40;3.80;;;11.20;99.90;;;;;;4964574;28;20051;-74
2023/03/29 09:48:26;;;;;;;8.43;3.58;;;11.30;99.90;;;;;;4967471;28;20059;-73
2023/03/29 09:51:00;;;;;;;7.90;4.38;;;11.20;99.90;;;;;;4965986;28;20103;-72
2023/03/29 09:53:28;;;;;;;13.02;5.63;;;11.30;99.90;;;;;;4960586;28;20054;-75
2023/03/29 09:56:02;;;;;;;8.10;4.40;;;11.20;99.90;;;;;;4962254;28;20079;-72
2023/03/29 09:58:46;;;;;;;7.32;3.83;;;11.10;99.90;;;;;;4966039;28;20048;-73
2023/03/29 10:01:17;;;;;;;7.55;4.20;;;11.40;92.60;;;;;;4991915;28;20562;-74
2023/03/29 10:03:52;;;;;;;9.80;4.40;;;11.70;89.40;;;;;;4969463;28;20051;-73
2023/03/29 10:06:24;;;;;;;10.85;5.07;;;12.00;87.10;;;;;;4997240;28;20050;-74
2023/03/29 10:08:58;;;;;;;10.07;3.65;;;11.90;79.80;;;;;;4969249;28;20047;-73
2023/03/29 10:11:38;;;;;;;14.57;7.93;;;12.10;75.60;;;;;;4971232;28;20044;-73
2023/03/29 10:14:12;;;;;;;8.32;4.63;;;12.40;71.20;;;;;;4974310;28;20062;-73
2023/03/29 10:16:41;;;;;;;8.75;4.03;;;12.30;63.00;;;;;;4970654;28;20134;-73
2023/03/29 10:19:18;;;;;;;7.47;3.92;;;12.10;56.70;;;;;;4964739;28;20050;-74
2023/03/29 10:21:49;;;;;;;8.15;3.92;;;12.00;51.90;;;;;;4967087;28;20439;-72
2023/03/29 10:24:20;;;;;;;10.00;4.55;;;11.90;47.60;;;;;;4965710;28;20042;-74
2023/03/29 10:26:54;;;;;;;9.70;3.53;;;12.10;43.70;;;;;;4963885;28;20609;-74
2023/03/29 10:29:22;;;;;;;6.03;3.53;;;12.20;41.50;;;;;;4959473;28;20138;-74
2023/03/29 10:31:51;;;;;;;6.43;2.58;;;12.10;34.70;;;;;;4961216;28;20149;-72
2023/03/29 10:34:18;;;;;;;6.43;3.25;;;12.20;31.70;;;;;;4962407;28;20075;-74
2023/03/29 10:36:56;;;;;;;6.35;3.33;;;12.30;28.70;;;;;;4964114;28;20106;-73
2023/03/29 10:39:27;;;;;;;8.52;4.10;;;12.50;27.50;;;;;;4960128;28;20039;-72
2023/03/29 10:41:55;;;;;;;7.47;4.35;;;12.80;27.50;;;;;;4963430;28;20043;-78
2023/03/29 10:44:29;;;;;;;7.57;4.32;;;13.00;24.20;;;;;;4965417;28;20491;-83
2023/03/29 10:47:07;;;;;;;8.95;3.90;;;12.80;17.40;;;;;;4972505;28;20071;-83
2023/03/29 10:49:41;;;;;;;12.40;3.90;;;12.60;17.30;;;;;;4985712;28;20107;-81
2023/03/29 10:52:15;;;;;;;9.63;4.90;;;12.70;14.70;;;;;;4962491;28;20049;-78
2023/03/29 10:54:43;;;;;;;10.82;6.22;;;12.70;12.00;;;;;;4963774;28;20047;-86
2023/03/29 10:57:15;;;;;;;12.95;6.50;;;12.70;9.70;;;;;;4963146;28;20073;-73
2023/03/29 10:59:52;;;;;;;8.57;4.70;;;12.70;6.50;;;;;;4961960;28;20054;-81
2023/03/29 11:02:46;;;;;;;12.45;4.55;;;12.60;7.90;;;;;;4960305;28;20049;-73
2023/03/29 11:05:24;;;;;;;9.15;5.18;;;12.80;6.50;;;;;;4960440;28;20051;-75
2023/03/29 11:08:21;;;;;;;11.13;4.78;;;12.90;5.90;;;;;;4960727;28;20051;-74
2023/03/29 11:10:57;;;;;;;9.82;4.53;;;13.00;4.50;;;;;;4969373;28;20058;-74
2023/03/29 11:13:32;;;;;;;7.40;4.47;;;12.90;2.60;;;;;;4959783;28;20047;-74
2023/03/29 11:16:11;;;;;;;6.97;4.03;;;12.90;2.20;;;;;;4949341;28;20043;-73
2023/03/29 11:19:05;;;;;;;10.85;5.25;;;12.90;1.00;;;;;;4951765;28;20035;-75
2023/03/29 11:21:42;;;;;;;10.15;4.57;;;12.90;1.00;;;;;;4949603;28;20051;-75
2023/03/29 11:24:26;;;;;;;11.90;5.07;;;12.90;1.00;;;;;;4949200;28;20073;-75
2023/03/29 11:27:08;;;;;;;12.30;5.45;;;13.20;1.00;;;;;;4950348;28;20403;-74
2023/03/29 11:29:45;;;;;;;11.60;4.57;;;13.70;1.00;;;;;;4949905;28;20051;-72
2023/03/29 11:32:18;;;;;;;12.75;6.50;;;13.80;1.00;;;;;;4954694;28;20042;-74
2023/03/29 11:34:54;;;;;;;10.05;5.60;;;14.10;1.00;;;;;;4952714;28;20122;-73
2023/03/29 11:37:29;;;;;;;11.45;5.47;;;13.70;1.00;;;;;;4954828;28;20042;-74
2023/03/29 11:40:10;;;;;;;16.73;8.55;;;13.60;1.00;;;;;;4963017;28;20051;-73
2023/03/29 11:42:43;;;;;;;12.50;6.03;;;13.80;6.70;;;;;;4964309;28;20055;-73
2023/03/29 11:45:16;;;;;;;9.52;6.00;;;14.20;1.00;;;;;;4958061;28;20141;-74
2023/03/29 11:47:45;;;;;;;13.35;5.72;;;14.30;1.00;;;;;;4957517;28;20078;-74
2023/03/29 11:50:19;;;;;;;13.73;7.00;;;14.20;1.00;;;;;;4958903;28;20098;-74
2023/03/29 11:52:52;;;;;;;12.75;6.72;;;14.20;1.00;;;;;;4956576;28;20129;-73
2023/03/29 11:55:25;;;;;;;11.18;6.30;;;14.00;1.00;;;;;;4955034;28;20055;-74
2023/03/29 11:57:56;;;;;;;16.83;7.68;;;14.00;1.00;;;;;;4951693;28;20126;-73
2023/03/29 12:00:28;;;;;;;16.67;7.82;;;14.30;1.00;;;;;;4976431;28;20634;-73
2023/03/29 12:02:59;;;;;;;11.88;6.22;;;14.30;1.00;;;;;;4951071;28;20054;-75
2023/03/29 12:05:34;;;;;;;11.88;6.13;;;14.30;1.00;;;;;;4950943;28;20043;-74
2023/03/29 12:08:07;;;;;;;13.65;6.65;;;13.90;1.00;;;;;;4957392;28;20279;-74
2023/03/29 12:10:39;;;;;;;10.57;6.45;;;13.80;1.00;;;;;;4956003;28;20483;-74
2023/03/29 12:13:12;;;;;;;14.00;7.07;;;13.70;1.00;;;;;;4953378;28;20503;-75
2023/03/29 12:15:45;;;;;;;7.75;4.55;;;13.60;1.00;;;;;;4962850;28;20055;-75
2023/03/29 12:18:20;;;;;;;12.45;6.22;;;13.40;1.00;;;;;;4956476;28;20048;-75
2023/03/29 12:20:52;;;;;;;10.98;5.32;;;13.50;1.00;;;;;;4955858;28;20079;-75
2023/03/29 12:23:20;;;;;;;9.73;5.97;;;13.60;1.00;;;;;;4978567;28;20047;-74
2023/03/29 12:25:57;;;;;;;9.50;5.18;;;13.80;1.00;;;;;;4953147;28;20423;-74
2023/03/29 12:29:05;;;;;;;10.13;4.30;;;13.80;1.00;;;;;;4952995;28;20134;-73
2023/03/29 12:31:41;;;;;;;8.15;4.80;;;13.60;1.00;;;;;;4936018;28;20099;-74
2023/03/29 12:34:39;;;;;;;10.05;4.63;;;13.60;1.00;;;;;;4951470;28;20039;-75
2023/03/29 12:37:42;;;;;;;8.48;4.60;;;13.60;1.00;;;;;;4951727;28;20130;-74
2023/03/29 12:40:40;;;;;;;8.43;4.63;;;13.60;1.00;;;;;;4952964;28;20074;-74
2023/03/29 12:43:48;;;;;;;;;;;13.50;1.00;;;;;;5007083;28;20272;-73
2023/03/29 12:46:34;;;;;;;7.65;4.40;;;13.50;1.00;;;;;;5007117;28;19968;-74
2023/03/29 12:49:10;;;;;;;7.90;4.20;;;13.50;1.00;;;;;;4973403;28;20460;-73
2023/03/29 12:51:39;;;;;;;;;;;13.50;1.00;;;;;;4955438;28;20047;-74
2023/03/29 12:54:12;;;;;;;7.05;3.10;;;13.60;1.00;;;;;;4952018;28;19957;-74
2023/03/29 12:56:43;;;;;;;4.53;2.97;;;13.60;1.00;;;;;;4955282;28;20031;-74
2023/03/29 12:59:27;;;;;;;7.15;3.83;;;13.70;1.00;;;;;;4956430;28;20043;-74
2023/03/29 13:02:01;;;;;;;6.28;3.60;;;13.50;1.00;;;;;;4954174;28;20500;-74
2023/03/29 13:04:38;;;;;;;6.88;2.92;;;13.70;1.00;;;;;;4949522;28;20062;-73
2023/03/29 13:07:12;;;;;;;5.82;3.00;;;13.90;1.00;;;;;;4952305;28;20567;-74
2023/03/29 13:09:50;;;;;;;4.65;2.95;;;14.00;1.00;;;;;;4950467;28;20042;-76
2023/03/29 13:12:25;;;;;;;6.95;3.38;;;14.00;1.00;;;;;;4974621;23;20046;-80
2023/03/29 13:14:59;;;;;;;7.45;3.40;;;14.00;1.00;;;;;;4997131;28;20122;-73
2023/03/29 13:17:51;;;;;;;8.25;4.03;;;14.00;1.00;;;;;;5001168;28;20038;-77